Time;durP1;ratioP1;P1;durP2;ratioP2;P2;SDS_P1;SDS_P2;PMS_P1;PMS_P2;Temp;Humidity;BMP_temperature;BMP_pressure;BME280_temperature;BME280_humidity;BME280_pressure;Samples;Min_cycle;Max_cycle;Signal;HPM_P1;HPM_P2
2022/09/06 00:01:38;;;;;;;4.23;3.00;;;;;;;-145.18;100.00;46635.00;4935402;29;20039;-67
2022/09/06 00:04:04;;;;;;;5.77;2.47;;;;;;;-145.18;100.00;46636.94;4935792;29;20652;-66
2022/09/06 00:06:30;;;;;;;10.30;2.80;;;;;;;-145.18;100.00;46633.06;4935356;29;20123;-67
2022/09/06 00:08:55;;;;;;;7.50;2.43;;;;;;;-145.18;100.00;46636.94;4935672;29;20511;-67
2022/09/06 00:11:20;;;;;;;4.40;2.90;;;;;;;-145.18;100.00;46635.00;4933708;29;20075;-67
2022/09/06 00:13:46;;;;;;;5.67;2.53;;;;;;;-145.18;100.00;46636.94;4935484;29;20485;-67
2022/09/06 00:16:16;;;;;;;3.30;2.67;;;;;;;-145.18;100.00;46636.94;4935252;29;20118;-66
2022/09/06 00:18:43;;;;;;;4.47;2.37;;;;;;;-145.18;100.00;46635.00;4935529;29;20051;-67
2022/09/06 00:21:25;;;;;;;4.97;2.47;;;;;;;-145.18;100.00;46633.06;4932947;29;20031;-67
2022/09/06 00:23:51;;;;;;;7.10;3.03;;;;;;;-145.18;100.00;46636.94;4916838;29;20078;-67
2022/09/06 00:26:18;;;;;;;8.23;3.00;;;;;;;-145.18;100.00;46635.00;4916170;29;20405;-67
2022/09/06 00:28:43;;;;;;;8.33;3.00;;;;;;;-145.18;100.00;46633.06;4916372;29;20478;-66
2022/09/06 00:31:16;;;;;;;5.00;2.97;;;;;;;-145.18;100.00;46636.94;4916004;29;20036;-66
2022/09/06 00:33:42;;;;;;;9.43;3.70;;;;;;;-145.18;100.00;46633.06;4916130;29;20040;-66
2022/09/06 00:36:08;;;;;;;5.90;3.70;;;;;;;-145.18;100.00;46635.00;4916374;29;20032;-66
2022/09/06 00:38:34;;;;;;;6.83;4.00;;;;;;;-145.18;100.00;46635.00;4915981;29;20036;-66
2022/09/06 00:40:59;;;;;;;6.20;4.37;;;;;;;-145.18;100.00;46636.94;4916289;29;20478;-66
2022/09/06 00:43:25;;;;;;;6.40;4.50;;;;;;;-145.18;100.00;46636.94;4915732;29;20067;-66
2022/09/06 00:45:52;;;;;;;4.93;4.07;;;;;;;-145.18;100.00;46640.88;4915980;29;20044;-67
2022/09/06 00:48:18;;;;;;;5.73;4.30;;;;;;;-145.18;100.00;46636.94;4915544;29;20047;-66
2022/09/06 00:50:46;;;;;;;6.57;4.47;;;;;;;-145.18;100.00;46636.94;4915554;29;20040;-67
2022/09/06 00:53:12;;;;;;;4.87;4.10;;;;;;;-145.18;100.00;46638.91;4915466;29;20481;-67
2022/09/06 00:55:40;;;;;;;7.30;4.57;;;;;;;-145.18;100.00;46638.91;4915584;29;20118;-67
2022/09/06 00:58:06;;;;;;;12.33;4.97;;;;;;;-145.18;100.00;46633.06;4915204;29;20099;-67
2022/09/06 01:00:31;;;;;;;7.47;4.20;;;;;;;-145.18;100.00;46635.00;4915564;29;20577;-67
2022/09/06 01:02:57;;;;;;;5.80;4.10;;;;;;;-145.18;100.00;46635.00;4915070;29;20135;-67
2022/09/06 01:05:32;;;;;;;8.43;4.70;;;;;;;-145.18;100.00;46636.94;4915566;29;20036;-67
2022/09/06 01:08:15;;;;;;;5.85;4.32;;;;;;;-145.18;100.00;46633.06;4915117;29;20394;-67
2022/09/06 01:10:58;;;;;;;8.13;4.73;;;;;;;-145.18;100.00;46629.13;4914943;29;20622;-67
2022/09/06 01:13:33;;;;;;;8.47;5.00;;;;;;;-145.18;100.00;46633.06;4915020;29;20043;-67
2022/09/06 01:16:13;;;;;;;6.32;5.00;;;;;;;-145.18;100.00;46635.00;4915449;29;20036;-68
2022/09/06 01:18:45;;;;;;;8.57;4.30;;;;;;;-145.18;100.00;46636.94;4914780;29;20028;-67
2022/09/06 01:21:20;;;;;;;6.63;5.00;;;;;;;-145.18;100.00;46633.06;4915356;29;20048;-67
2022/09/06 01:24:07;;;;;;;7.95;5.30;;;;;;;-145.18;100.00;46638.91;4914797;29;20095;-67
2022/09/06 01:26:44;;;;;;;8.80;5.73;;;;;;;-145.18;100.00;46640.88;4914887;29;20024;-67
2022/09/06 01:29:25;;;;;;;8.60;5.33;;;;;;;-145.18;100.00;46638.91;4915197;29;20059;-67
2022/09/06 01:32:05;;;;;;;11.17;5.90;;;;;;;-145.18;100.00;46640.88;4914295;29;20028;-68
2022/09/06 01:35:04;;;;;;;8.77;5.80;;;;;;;-145.18;100.00;46636.94;4915595;29;20430;-67
2022/09/06 01:37:30;;;;;;;9.07;5.33;;;;;;;-145.18;100.00;46638.91;4913606;29;20118;-67
2022/09/06 01:39:56;;;;;;;8.93;5.87;;;;;;;-145.18;100.00;46636.94;4913349;29;20111;-67
2022/09/06 01:42:25;;;;;;;11.47;6.50;;;;;;;-145.18;100.00;46638.91;4914479;29;20055;-67
2022/09/06 01:44:55;;;;;;;8.03;6.10;;;;;;;-145.18;100.00;46642.81;4914703;29;20032;-67
2022/09/06 01:47:47;;;;;;;8.60;6.60;;;;;;;-145.18;100.00;46638.91;4914504;29;20036;-67
2022/09/06 01:50:24;;;;;;;8.43;7.10;;;;;;;-145.18;100.00;46640.88;4914802;29;20096;-67
2022/09/06 01:52:56;;;;;;;11.57;7.20;;;;;;;-145.18;100.00;46635.00;4914421;29;20033;-67
2022/09/06 01:55:38;;;;;;;8.93;6.60;;;;;;;-145.18;100.00;46640.88;4914976;29;20103;-67
2022/09/06 01:58:03;;;;;;;10.10;6.53;;;;;;;-145.18;100.00;46642.81;4914237;29;20032;-67
2022/09/06 02:03:25;;;;;;;8.43;7.03;;;;;;;-145.18;100.00;46640.88;5014248;23;20058;-67
2022/09/06 02:05:55;;;;;;;9.53;6.97;;;;;;;-145.18;100.00;46640.88;4962540;28;20102;-67
2022/09/06 02:08:25;;;;;;;12.00;7.40;;;;;;;-145.18;100.00;46640.88;4951783;28;20035;-67
2022/09/06 02:11:02;;;;;;;10.33;7.37;;;;;;;-145.18;100.00;46642.81;4969581;28;20042;-67
2022/09/06 02:13:37;;;;;;;13.50;7.90;;;;;;;-145.18;100.00;46640.88;4971607;28;20062;-67
2022/09/06 02:16:05;;;;;;;8.00;7.17;;;;;;;-145.18;100.00;46642.81;4971837;28;20039;-67
2022/09/06 02:18:40;;;;;;;10.73;7.13;;;;;;;-145.18;100.00;46650.63;4970917;28;20372;-67
2022/09/06 02:21:09;;;;;;;8.02;6.97;;;;;;;-145.18;100.00;46642.81;4969985;28;20138;-67
2022/09/06 02:23:38;;;;;;;10.00;7.20;;;;;;;-145.18;100.00;46652.59;4970628;28;20058;-67
2022/09/06 02:26:15;;;;;;;11.17;7.67;;;;;;;-145.18;100.00;46640.88;4971689;28;20050;-67
2022/09/06 02:28:41;;;;;;;11.83;7.30;;;;;;;-145.18;100.00;46642.81;4971410;28;20030;-67
2022/09/06 02:31:16;;;;;;;9.23;7.90;;;;;;;-145.18;100.00;46640.88;4972001;28;20039;-67
2022/09/06 02:33:44;;;;;;;10.85;7.90;;;;;;;-145.18;100.00;46642.81;4971525;28;20035;-67
2022/09/06 02:36:10;;;;;;;10.90;8.10;;;;;;;-145.18;100.00;46654.53;4971991;28;20027;-67
2022/09/06 02:38:39;;;;;;;9.17;7.53;;;;;;;-145.18;100.00;46640.88;4971237;28;20089;-67
2022/09/06 02:41:06;;;;;;;13.97;7.07;;;;;;;-145.18;100.00;46640.88;4971890;28;20046;-67
2022/09/06 02:43:31;;;;;;;10.40;7.80;;;;;;;-145.18;100.00;46640.88;4971505;28;20459;-67
2022/09/06 02:45:56;;;;;;;9.07;7.40;;;;;;;-145.18;100.00;46642.81;4971623;28;20093;-67
2022/09/06 02:48:22;;;;;;;14.87;7.40;;;;;;;-145.18;100.00;46640.88;4971167;28;20046;-67
2022/09/06 02:50:47;;;;;;;12.83;8.53;;;;;;;-145.18;100.00;46650.63;4971479;28;20118;-67
2022/09/06 02:53:14;;;;;;;12.20;8.83;;;;;;;-145.18;100.00;46650.63;4956348;28;20121;-67
2022/09/06 02:55:40;;;;;;;12.33;9.43;;;;;;;-145.18;100.00;46650.63;4952287;28;20023;-66
2022/09/06 02:58:07;;;;;;;13.37;9.03;;;;;;;-145.18;100.00;46642.81;4950092;29;20030;-67
2022/09/06 03:00:33;;;;;;;12.07;9.30;;;;;;;-145.18;100.00;46636.94;4952307;28;20035;-67
2022/09/06 03:02:58;;;;;;;11.33;8.73;;;;;;;-145.18;100.00;46642.81;4936686;28;20040;-67
2022/09/06 03:05:25;;;;;;;12.60;8.90;;;;;;;-145.18;100.00;46640.88;4933295;29;20035;-67
2022/09/06 03:07:51;;;;;;;13.17;9.07;;;;;;;-145.18;100.00;46640.88;4932643;29;20032;-67
2022/09/06 03:10:17;;;;;;;9.77;8.77;;;;;;;-145.18;100.00;46642.81;4933043;29;20027;-66
2022/09/06 03:12:43;;;;;;;9.87;8.70;;;;;;;-145.18;100.00;46642.81;4932775;29;20039;-67
2022/09/06 03:15:09;;;;;;;14.27;9.47;;;;;;;-145.18;100.00;46640.88;4933184;29;20036;-67
2022/09/06 03:17:35;;;;;;;10.83;8.47;;;;;;;-145.18;100.00;46638.91;4932787;29;20028;-67
2022/09/06 03:20:01;;;;;;;12.67;9.03;;;;;;;-145.18;100.00;46642.81;4932977;29;20046;-66
2022/09/06 03:22:26;;;;;;;12.53;9.03;;;;;;;-145.18;100.00;46640.88;4932603;29;20120;-66
2022/09/06 03:24:52;;;;;;;17.17;8.57;;;;;;;-145.18;100.00;46636.94;4932900;29;20036;-66
2022/09/06 03:27:17;;;;;;;10.47;8.37;;;;;;;-145.18;100.00;46638.91;4932445;29;20039;-66
2022/09/06 03:29:42;;;;;;;13.13;8.63;;;;;;;-145.18;100.00;46636.94;4945679;28;20031;-66
2022/09/06 03:32:08;;;;;;;12.27;8.70;;;;;;;-145.18;100.00;46654.53;4953572;28;20043;-66
2022/09/06 03:34:33;;;;;;;11.20;9.87;;;;;;;-145.18;100.00;46642.81;4955268;29;20049;-66
2022/09/06 03:36:58;;;;;;;10.77;8.70;;;;;;;-145.18;100.00;46654.53;4953349;29;20038;-66
2022/09/06 03:39:24;;;;;;;12.77;8.33;;;;;;;-145.18;100.00;46642.81;4955014;29;20039;-66
2022/09/06 03:41:49;;;;;;;10.27;8.40;;;;;;;-145.18;100.00;46642.81;4955100;28;20035;-67
2022/09/06 03:44:14;;;;;;;11.20;9.10;;;;;;;-145.18;100.00;46638.91;4954665;29;20460;-67
2022/09/06 03:46:40;;;;;;;10.40;8.20;;;;;;;-145.18;100.00;46640.88;4955237;28;20830;-67
2022/09/06 03:49:06;;;;;;;13.60;8.63;;;;;;;-145.18;100.00;46650.63;4954692;29;20508;-67
2022/09/06 03:51:32;;;;;;;12.50;8.33;;;;;;;-145.18;100.00;46640.88;4954856;28;20129;-67
2022/09/06 03:53:57;;;;;;;13.07;8.87;;;;;;;-145.18;100.00;46650.63;4954339;28;20056;-67
2022/09/06 03:56:22;;;;;;;11.20;8.90;;;;;;;-145.18;100.00;46640.88;4955036;29;20066;-67
2022/09/06 03:58:48;;;;;;;11.27;8.67;;;;;;;-145.18;100.00;46650.63;4954470;29;20515;-67
2022/09/06 04:01:13;;;;;;;12.57;8.73;;;;;;;-145.18;100.00;46642.81;4954856;28;20428;-67
2022/09/06 04:03:39;;;;;;;14.67;10.20;;;;;;;-145.18;100.00;46640.88;4954314;28;20066;-67
2022/09/06 04:06:06;;;;;;;12.93;9.67;;;;;;;-145.18;100.00;46640.88;4954514;28;20067;-66
2022/09/06 04:08:32;;;;;;;15.27;10.00;;;;;;;-145.18;100.00;46642.81;4954359;28;20046;-67
2022/09/06 04:10:58;;;;;;;13.50;10.03;;;;;;;-145.18;100.00;46640.88;4954411;28;20066;-67
2022/09/06 04:13:25;;;;;;;12.10;10.23;;;;;;;-145.18;100.00;46642.81;4951578;28;20030;-67
2022/09/06 04:15:51;;;;;;;12.63;10.70;;;;;;;-145.18;100.00;46640.88;4954405;28;20399;-67
2022/09/06 04:18:17;;;;;;;16.80;10.33;;;;;;;-145.18;100.00;46640.88;4948300;28;20039;-67
2022/09/06 04:20:46;;;;;;;14.23;11.20;;;;;;;-145.18;100.00;46638.91;4946903;28;20031;-67
2022/09/06 04:23:12;;;;;;;20.07;11.27;;;;;;;-145.18;100.00;46638.91;4945289;28;20464;-67
2022/09/06 04:25:37;;;;;;;14.67;12.00;;;;;;;-145.18;100.00;46636.94;4945785;29;20148;-67
2022/09/06 04:28:03;;;;;;;13.13;10.33;;;;;;;-145.18;100.00;46636.94;4944727;28;20031;-67
2022/09/06 04:30:28;;;;;;;16.90;10.70;;;;;;;-145.18;100.00;46640.88;4953978;28;20032;-67
2022/09/06 04:32:54;;;;;;;12.47;10.50;;;;;;;-145.18;100.00;46638.91;4958959;28;20039;-67
2022/09/06 04:35:19;;;;;;;12.27;10.90;;;;;;;-145.18;100.00;46640.88;4946112;28;20031;-67
2022/09/06 04:37:44;;;;;;;14.10;11.33;;;;;;;-145.18;100.00;46636.94;4953589;29;20062;-67
2022/09/06 04:40:10;;;;;;;18.17;11.33;;;;;;;-145.18;100.00;46640.88;4952872;28;20046;-67
2022/09/06 04:42:35;;;;;;;13.40;10.27;;;;;;;-145.18;100.00;46640.88;4951625;29;20042;-67
2022/09/06 04:45:00;;;;;;;16.60;11.20;;;;;;;-145.18;100.00;46638.91;4952685;29;20587;-67
2022/09/06 04:47:26;;;;;;;18.50;12.00;;;;;;;-145.18;100.00;46638.91;4951067;28;20126;-67
2022/09/06 04:49:52;;;;;;;13.83;11.37;;;;;;;-145.18;100.00;46638.91;4952347;29;20524;-67
2022/09/06 04:52:18;;;;;;;19.67;12.10;;;;;;;-145.18;100.00;46638.91;4951906;28;20031;-67
2022/09/06 04:54:44;;;;;;;13.83;11.23;;;;;;;-145.18;100.00;46638.91;4953166;28;20090;-67
2022/09/06 04:57:10;;;;;;;16.37;10.60;;;;;;;-145.18;100.00;46636.94;4952891;28;20019;-67
2022/09/06 04:59:35;;;;;;;20.87;11.80;;;;;;;-145.18;100.00;46638.91;4953142;28;20111;-67
2022/09/06 05:02:01;;;;;;;18.80;11.03;;;;;;;-145.18;100.00;46638.91;4952864;28;20093;-67
2022/09/06 05:04:26;;;;;;;13.80;10.80;;;;;;;-145.18;100.00;46636.94;4953198;28;20035;-67
2022/09/06 05:07:00;;;;;;;16.47;10.67;;;;;;;-145.18;100.00;46640.88;4948638;28;20428;-67
2022/09/06 05:09:26;;;;;;;15.23;11.03;;;;;;;-145.18;100.00;46636.94;4953142;28;20039;-67
2022/09/06 05:11:51;;;;;;;14.53;11.30;;;;;;;-145.18;100.00;46636.94;4950414;28;20027;-67
2022/09/06 05:14:16;;;;;;;12.50;11.20;;;;;;;-145.18;100.00;46644.78;4952823;28;20035;-67
2022/09/06 05:16:44;;;;;;;15.60;12.20;;;;;;;-145.18;100.00;46636.94;4952203;28;20031;-69
2022/09/06 05:19:09;;;;;;;18.77;11.47;;;;;;;-145.18;100.00;46640.88;4952633;28;20392;-69
2022/09/06 05:21:34;;;;;;;22.37;12.50;;;;;;;-145.18;100.00;46636.94;4953301;28;20035;-69
2022/09/06 05:24:00;;;;;;;16.50;11.10;;;;;;;-145.18;100.00;46640.88;4951511;29;20069;-69
2022/09/06 05:26:25;;;;;;;16.77;11.67;;;;;;;-145.18;100.00;46636.94;4953367;28;20042;-69
2022/09/06 05:28:51;;;;;;;15.67;10.87;;;;;;;-145.18;100.00;46638.91;4952516;29;20035;-69
2022/09/06 05:31:27;;;;;;;13.40;11.50;;;;;;;-145.18;100.00;46652.59;4953111;28;20039;-69
2022/09/06 05:33:54;;;;;;;21.93;13.20;;;;;;;-145.18;100.00;46640.88;4952751;28;20428;-69
2022/09/06 05:36:22;;;;;;;23.60;12.67;;;;;;;-145.18;100.00;46638.91;4953324;28;20026;-69
2022/09/06 05:38:49;;;;;;;19.07;15.33;;;;;;;-145.18;100.00;46650.63;4952581;28;20035;-69
2022/09/06 05:41:14;;;;;;;21.00;14.07;;;;;;;-145.18;100.00;46640.88;4952654;28;20553;-69
2022/09/06 05:43:39;;;;;;;22.27;14.07;;;;;;;-145.18;100.00;46638.91;4944916;28;20122;-69
2022/09/06 05:46:04;;;;;;;19.93;14.57;;;;;;;-145.18;100.00;46636.94;4950938;28;20110;-69
2022/09/06 05:48:30;;;;;;;16.33;14.43;;;;;;;-145.18;100.00;46635.00;4951593;28;20665;-69
2022/09/06 05:51:04;;;;;;;23.60;14.80;;;;;;;-145.18;100.00;46633.06;4952158;28;20510;-69
2022/09/06 05:53:34;;;;;;;16.00;12.63;;;;;;;-145.18;100.00;46636.94;4951404;28;20034;-69
2022/09/06 05:55:59;;;;;;;21.23;12.80;;;;;;;-145.18;100.00;46635.00;4951676;28;20039;-69
2022/09/06 05:58:25;;;;;;;25.67;12.60;;;;;;;-145.18;100.00;46636.94;4949669;29;20511;-69
2022/09/06 06:00:50;;;;;;;19.83;12.03;;;;;;;-145.18;100.00;46636.94;4952750;28;20483;-69
2022/09/06 06:03:15;;;;;;;20.23;12.73;;;;;;;-145.18;100.00;46633.06;4951496;28;20472;-69
2022/09/06 06:05:45;;;;;;;18.63;12.77;;;;;;;-145.18;100.00;46636.94;4952467;28;20047;-67
2022/09/06 06:08:11;;;;;;;16.70;13.73;;;;;;;-145.18;100.00;46636.94;4951602;28;20499;-69
2022/09/06 06:10:38;;;;;;;18.30;12.63;;;;;;;-145.18;100.00;46635.00;4951156;29;20043;-69
2022/09/06 06:13:04;;;;;;;18.33;13.00;;;;;;;-145.18;100.00;46636.94;4951479;28;20098;-69
2022/09/06 06:15:31;;;;;;;18.33;12.90;;;;;;;-145.18;100.00;46635.00;4951527;28;20492;-68
2022/09/06 06:17:56;;;;;;;21.90;14.90;;;;;;;-145.18;100.00;46635.00;4950270;28;20542;-68
2022/09/06 06:20:22;;;;;;;17.97;14.10;;;;;;;-145.18;100.00;46638.91;4952335;28;20039;-69
2022/09/06 06:22:47;;;;;;;18.47;14.30;;;;;;;-145.18;100.00;46635.00;4951935;28;20411;-69
2022/09/06 06:25:12;;;;;;;20.43;15.30;;;;;;;-145.18;100.00;46638.91;4952230;28;20483;-69
2022/09/06 06:27:38;;;;;;;25.53;15.90;;;;;;;-145.18;100.00;46636.94;4952050;28;20557;-69
2022/09/06 06:30:03;;;;;;;18.83;14.13;;;;;;;-145.18;100.00;46635.00;4952199;28;20500;-69
2022/09/06 06:32:29;;;;;;;21.93;14.93;;;;;;;-145.18;100.00;46636.94;4951415;28;20035;-68
2022/09/06 06:34:54;;;;;;;22.10;14.67;;;;;;;-145.18;100.00;46636.94;4952053;29;20101;-69
2022/09/06 06:37:19;;;;;;;17.63;14.57;;;;;;;-145.18;100.00;46638.91;4952587;28;20035;-69
2022/09/06 06:39:45;;;;;;;20.60;15.37;;;;;;;-145.18;100.00;46640.88;4952123;28;20512;-69
2022/09/06 06:42:10;;;;;;;18.37;15.83;;;;;;;-145.18;100.00;46636.94;4952410;28;20455;-69
2022/09/06 06:44:36;;;;;;;20.90;16.07;;;;;;;-145.18;100.00;46635.00;4951893;29;20043;-68
2022/09/06 06:47:01;;;;;;;20.00;14.93;;;;;;;-145.18;100.00;46640.88;4952198;28;20094;-69
2022/09/06 06:49:28;;;;;;;20.57;15.27;;;;;;;-145.18;100.00;46642.81;4952006;29;20118;-69
2022/09/06 06:51:53;;;;;;;21.10;15.13;;;;;;;-145.18;100.00;46636.94;4949063;28;20057;-69
2022/09/06 06:54:18;;;;;;;21.40;14.70;;;;;;;-145.18;100.00;46635.00;4952034;28;20464;-69
2022/09/06 06:56:44;;;;;;;18.80;14.13;;;;;;;-145.18;100.00;46640.88;4952500;28;20031;-69
2022/09/06 06:59:09;;;;;;;16.30;13.83;;;;;;;-145.18;100.00;46640.88;4950414;29;20036;-69
2022/09/06 07:01:35;;;;;;;17.00;14.63;;;;;;;-145.18;100.00;46640.88;4952044;28;20051;-69
2022/09/06 07:04:01;;;;;;;21.43;15.00;;;;;;;-145.18;100.00;46640.88;4952770;28;20051;-69
2022/09/06 07:06:28;;;;;;;18.57;13.17;;;;;;;-145.18;100.00;46640.88;4955921;28;20071;-69
2022/09/06 07:08:56;;;;;;;19.33;12.80;;;;;;;-145.18;100.00;46638.91;4955171;28;20051;-69
2022/09/06 07:11:21;;;;;;;13.37;11.93;;;;;;;-145.18;100.00;46638.91;4955874;28;20055;-69
2022/09/06 07:13:46;;;;;;;14.33;11.80;;;;;;;-145.18;100.00;46650.63;4940529;28;20040;-69
2022/09/06 07:16:19;;;;;;;14.70;11.90;;;;;;;-145.18;100.00;46650.63;4936672;29;20106;-69
2022/09/06 07:18:44;;;;;;;13.67;12.27;;;;;;;-145.18;100.00;46652.59;4936058;29;20040;-69
2022/09/06 07:21:15;;;;;;;19.20;11.57;;;;;;;-145.18;100.00;46650.63;4935883;29;20062;-68
2022/09/06 07:23:41;;;;;;;13.33;11.40;;;;;;;-145.18;100.00;46609.59;4936195;29;20040;-68
2022/09/06 07:26:12;;;;;;;12.80;10.80;;;;;;;-145.18;100.00;46607.66;4936185;29;20024;-69
2022/09/06 07:28:37;;;;;;;12.67;10.87;;;;;;;-145.18;100.00;46611.56;4935880;29;20138;-68
2022/09/06 07:31:02;;;;;;;15.03;10.37;;;;;;;-145.18;100.00;46611.56;4936065;29;20122;-69
2022/09/06 07:33:28;;;;;;;14.17;10.67;;;;;;;-145.18;100.00;46613.50;4934618;29;20031;-69
2022/09/06 07:36:01;;;;;;;16.27;10.53;;;;;;;-145.18;100.00;46613.50;4949286;29;20102;-69
2022/09/06 07:38:28;;;;;;;13.77;10.43;;;;;;;-145.18;100.00;46611.56;4955060;28;20498;-69
2022/09/06 07:40:58;;;;;;;13.67;10.40;;;;;;;-145.18;100.00;46617.41;4955390;28;20027;-69
2022/09/06 07:43:24;;;;;;;12.27;9.67;;;;;;;-145.18;100.00;46623.28;4954754;28;20087;-67
2022/09/06 07:46:04;;;;;;;11.73;9.10;;;;;;;-145.18;100.00;46617.41;4955186;28;20036;-69
2022/09/06 07:48:31;;;;;;;13.47;8.90;;;;;;;-145.18;100.00;46619.38;4955000;29;20038;-69
2022/09/06 07:51:12;;;;;;;13.33;8.83;;;;;;;-145.18;100.00;46619.38;4954958;28;20031;-69
2022/09/06 07:53:39;;;;;;;10.07;8.37;;;;;;;-145.18;100.00;46621.31;4954614;28;20547;-67
2022/09/06 07:56:08;;;;;;;12.13;8.87;;;;;;;-145.18;100.00;46627.19;4954845;28;20489;-69
2022/09/06 07:58:34;;;;;;;11.53;8.23;;;;;;;-145.18;100.00;46631.09;4954632;28;20035;-69
2022/09/06 08:01:33;;;;;;;10.40;8.20;;;;;;;-145.18;100.00;46625.22;4954715;28;20518;-69
2022/09/06 08:04:11;;;;;;;11.37;8.10;;;;;;;-145.18;100.00;46627.19;4952991;29;20415;-69
2022/09/06 08:06:39;;;;;;;9.33;7.47;;;;;;;-145.18;100.00;46627.19;4954972;28;20043;-69
2022/09/06 08:09:09;;;;;;;8.97;7.60;;;;;;;-145.18;100.00;46631.09;4954508;28;20039;-69
2022/09/06 08:11:36;;;;;;;8.30;6.83;;;;;;;-145.18;100.00;46633.06;4954674;28;20142;-67
2022/09/06 08:14:04;;;;;;;8.37;7.20;;;;;;;-145.18;100.00;46635.00;4954164;28;20032;-69
2022/09/06 08:16:31;;;;;;;8.17;7.37;;;;;;;-145.18;100.00;46636.94;4954146;28;20397;-69
2022/09/06 08:18:59;;;;;;;12.43;7.07;;;;;;;-145.18;100.00;46636.94;4954319;28;20067;-69
2022/09/06 08:21:26;;;;;;;10.90;7.40;;;;;;;-145.18;100.00;46635.00;4953268;29;20042;-69
2022/09/06 08:23:54;;;;;;;9.73;7.23;;;;;;;-145.18;100.00;46644.78;4953976;28;20031;-69
2022/09/06 08:26:21;;;;;;;12.03;7.50;;;;;;;-145.18;100.00;46646.72;4954259;28;20511;-68
2022/09/06 08:28:47;;;;;;;10.57;6.67;;;;;;;-145.18;100.00;46648.69;4954280;28;20058;-69
2022/09/06 08:31:15;;;;;;;9.47;6.37;;;;;;;-145.18;100.00;46648.69;4954277;28;20114;-69
2022/09/06 08:33:42;;;;;;;8.33;7.07;;;;;;;-145.18;100.00;46644.78;4950722;28;20034;-69
2022/09/06 08:36:09;;;;;;;11.23;6.53;;;;;;;-145.18;100.00;46648.69;4954256;28;20042;-69
2022/09/06 08:38:35;;;;;;;8.13;6.40;;;;;;;-145.18;100.00;46644.78;4953846;28;20118;-68
2022/09/06 08:41:13;;;;;;;7.57;6.30;;;;;;;-145.18;100.00;46660.41;4954328;28;20031;-66
2022/09/06 08:43:47;;;;;;;8.50;5.97;;;;;;;-145.18;100.00;46656.50;4953800;28;20062;-68
2022/09/06 08:46:16;;;;;;;9.87;6.03;;;;;;;-145.18;100.00;46656.50;4940470;28;20086;-69
2022/09/06 08:48:42;;;;;;;9.30;5.83;;;;;;;-145.18;100.00;46648.69;4934538;29;20048;-68
2022/09/06 08:51:29;;;;;;;7.43;4.90;;;;;;;-145.18;100.00;46652.59;4933870;29;20047;-68
2022/09/06 08:54:04;;;;;;;14.53;6.77;;;;;;;-145.18;100.00;46660.41;4933231;29;20464;-67
2022/09/06 08:56:41;;;;;;;10.73;5.32;;;;;;;-145.18;100.00;46656.50;4935095;29;20028;-68
2022/09/06 08:59:12;;;;;;;8.03;5.83;;;;;;;-145.18;100.00;46650.63;4934371;29;20023;-68
2022/09/06 09:01:46;;;;;;;7.87;5.40;;;;;;;-145.18;100.00;46662.34;4934584;29;20062;-66
2022/09/06 09:04:16;;;;;;;8.63;6.03;;;;;;;-145.18;100.00;46648.69;4933953;29;20048;-67
2022/09/06 09:06:47;;;;;;;9.57;6.07;;;;;;;-145.18;100.00;46648.69;4933425;29;20047;-67
2022/09/06 09:09:13;;;;;;;12.73;6.40;;;;;;;-145.18;100.00;46652.59;4933998;29;20043;-67
2022/09/06 09:11:48;;;;;;;8.33;6.53;;;;;;;-145.18;100.00;46654.53;4934254;29;20031;-67
2022/09/06 09:14:27;;;;;;;12.03;6.80;;;;;;;-145.18;100.00;46652.59;4934127;29;20486;-68
2022/09/06 09:16:57;;;;;;;9.07;6.70;;;;;;;-145.18;100.00;46658.44;4934542;29;20028;-67
2022/09/06 09:19:23;;;;;;;9.37;7.33;;;;;;;-145.18;100.00;46652.59;4933966;29;20058;-67
2022/09/06 09:21:48;;;;;;;8.77;6.77;;;;;;;-145.18;100.00;46652.59;4934461;29;20118;-67
2022/09/06 09:24:14;;;;;;;8.80;6.33;;;;;;;-145.18;100.00;46652.59;4933626;29;20519;-67
2022/09/06 09:27:17;;;;;;;8.90;6.83;;;;;;;-145.18;100.00;46640.88;4933856;29;20516;-68
2022/09/06 09:29:54;;;;;;;8.20;6.10;;;;;;;-145.18;100.00;46631.09;4912257;29;20039;-67
2022/09/06 09:32:37;;;;;;;10.40;6.40;;;;;;;-145.18;100.00;46640.88;4930651;29;20143;-67
2022/09/06 09:35:26;;;;;;;9.43;6.87;;;;;;;-145.18;100.00;46646.72;4932887;29;20040;-67
2022/09/06 09:38:18;;;;;;;10.30;7.30;;;;;;;-145.18;100.00;46627.19;4934431;29;20042;-67
2022/09/06 09:40:52;;;;;;;9.37;6.83;;;;;;;-145.18;100.00;46582.25;4953371;28;20043;-67
2022/09/06 09:43:27;;;;;;;10.02;6.15;;;;;;;-145.18;100.00;46580.31;4952099;29;20035;-67
2022/09/06 09:46:16;;;;;;;10.95;6.72;;;;;;;-145.18;100.00;46584.22;4953248;28;20110;-67
2022/09/06 09:49:05;;;;;;;9.73;7.27;;;;;;;-145.18;100.00;46549.06;4952654;28;20522;-67
2022/09/06 09:51:33;;;;;;;12.57;7.17;;;;;;;-145.18;100.00;46529.53;4948584;28;20099;-67
2022/09/06 09:54:02;;;;;;;13.57;6.83;;;;;;;-145.18;100.00;46527.56;4933288;29;20036;-67
2022/09/06 09:56:51;;;;;;;9.20;6.87;;;;;;;-145.18;100.00;46529.53;4933707;29;20674;-67
2022/09/06 09:59:40;;;;;;;11.17;6.67;;;;;;;-145.18;100.00;46527.56;4933076;29;20036;-67
2022/09/06 10:02:25;;;;;;;9.43;7.60;;;;;;;-145.18;100.00;46529.53;4947722;28;20086;-67
2022/09/06 10:05:01;;;;;;;9.47;7.27;;;;;;;-145.18;100.00;46531.47;4952616;28;20476;-67
2022/09/06 10:07:26;;;;;;;9.43;7.53;;;;;;;-145.18;100.00;46537.34;4952605;28;20043;-67
2022/09/06 10:10:06;;;;;;;9.80;7.67;;;;;;;-145.18;100.00;46533.44;4952478;28;20551;-67
2022/09/06 10:12:39;;;;;;;9.10;6.60;;;;;;;-145.18;100.00;46537.34;4952528;28;20047;-67
2022/09/06 10:15:10;;;;;;;11.07;6.33;;;;;;;-145.18;100.00;46523.66;4950908;29;20408;-67
2022/09/06 10:17:51;;;;;;;9.27;7.90;;;;;;;-145.18;100.00;46527.56;4952613;28;20396;-67
2022/09/06 10:20:17;;;;;;;10.70;7.73;;;;;;;-145.18;100.00;46525.63;4952101;28;20477;-67
2022/09/06 10:22:45;;;;;;;12.30;7.37;;;;;;;-145.18;100.00;46511.94;4952475;28;20047;-67
2022/09/06 10:25:30;;;;;;;8.97;7.37;;;;;;;-145.18;100.00;46519.75;4952011;28;20039;-67
2022/09/06 10:28:13;;;;;;;9.10;8.17;;;;;;;-145.18;100.00;46511.94;4952715;29;20059;-67
2022/09/06 10:30:48;;;;;;;10.40;7.03;;;;;;;-145.18;100.00;46510.00;4952227;29;20058;-67
2022/09/06 10:33:19;;;;;;;;;;;;;;;-145.18;100.00;46527.56;4952752;28;20042;-67
2022/09/06 10:35:45;;;;;;;9.88;6.88;;;;;;;-145.18;100.00;46511.94;4952465;28;19915;-67
2022/09/06 10:38:31;;;;;;;9.00;7.88;;;;;;;-145.18;100.00;46521.72;4950872;28;20059;-67
2022/09/06 10:41:19;;;;;;;8.75;7.13;;;;;;;-145.18;100.00;46511.94;4956539;28;20054;-67
2022/09/06 10:43:58;;;;;;;8.57;7.15;;;;;;;-145.18;100.00;46515.84;4955793;28;20063;-67
2022/09/06 10:46:25;;;;;;;11.73;7.47;;;;;;;-145.18;100.00;46531.47;4955622;28;20114;-66
2022/09/06 10:48:52;;;;;;;9.48;6.78;;;;;;;-145.18;100.00;46513.91;4953769;28;20086;-66
2022/09/06 10:51:26;;;;;;;10.70;6.75;;;;;;;-145.18;100.00;46517.81;4949652;28;20524;-67
2022/09/06 10:54:01;;;;;;;13.98;8.43;;;;;;;-145.18;100.00;46543.19;4953933;29;20062;-66
2022/09/06 10:56:42;;;;;;;12.00;7.50;;;;;;;-145.18;100.00;46545.16;4952976;29;20401;-67
2022/09/06 10:59:19;;;;;;;13.23;8.07;;;;;;;-145.18;100.00;46513.91;4955657;28;20035;-67
2022/09/06 11:02:09;;;;;;;9.18;7.80;;;;;;;-145.18;100.00;46517.81;4956165;28;20440;-67
2022/09/06 11:04:37;;;;;;;10.35;8.10;;;;;;;-145.18;100.00;46529.53;4955600;28;20055;-67
2022/09/06 11:07:27;;;;;;;14.75;8.38;;;;;;;-145.18;100.00;46508.03;4955844;28;20078;-67
2022/09/06 11:10:03;;;;;;;10.25;8.02;;;;;;;-145.18;100.00;46513.91;4955570;28;20035;-67
2022/09/06 11:12:57;;;;;;;13.93;9.00;;;;;;;-145.18;100.00;46494.38;4955707;28;20077;-67
2022/09/06 11:15:26;;;;;;;14.20;8.60;;;;;;;-145.18;100.00;46525.63;4955111;28;20094;-67
2022/09/06 11:18:06;;;;;;;11.13;8.38;;;;;;;-145.18;100.00;46472.88;4955932;28;20032;-67